Weather History for Midland Airpark, TX

Change the Weather History Date:

Tuesday, October 23, 2012

  Actual Average (KMAF) Record (KMAF)
Temperature  
Mean Temperature 76 °F 63 °F  
Max Temperature 87 °F 76 °F 90 °F (1934)
Min Temperature 64 °F 49 °F 30 °F (1996)
Degree Days  
Heating Degree Days 0 4  
Month to date heating degree days 55  
Since 1 July heating degree days 66  
Cooling Degree Days 10 2  
Month to date cooling degree days 85  
Year to date cooling degree days 2264  
Growing Degree Days 26 (Base 50)    
Moisture  
Dew Point 57 °F    
Average Humidity 57    
Maximum Humidity 88    
Minimum Humidity 24    
Precipitation  
Precipitation 0.00 in 0.05 in 1.94 in (1978)
Month to date precipitation 1.42  
Year to date precipitation 13.00  
Snow  
Snow 0.00 in - - ()
Month to date snowfall  
Since 1 July snowfall  
Since 1 September snowfall  
Snow Depth -    
Sea Level Pressure  
Sea Level Pressure 29.93 in    
Wind  
Wind Speed 8 mph (South)    
Max Wind Speed 13 mph    
Max Gust Speed 20 mph    
Visibility 10 miles    
Events      
T = Trace of Precipitation, MM = Missing Value Source: NWS Daily Summary

Daily Weather History Graph

Daily Weather History Graph

Search for Another Location

Airport:

Trip Planner

Search our weather history database for the weather conditions in past years. The results will help you decide how hot, cold, wet, or windy it might be!

Date:

Astronomy

Oct. 23, 2012 Rise Set
Actual Time 7:58 AM CDT 7:06 PM CDT
Civil Twilight 7:33 AM CDT 7:31 PM CDT
Nautical Twilight 7:04 AM CDT 8:00 PM CDT
Astronomical Twilight 6:36 AM CDT 8:28 PM CDT
Moon 3:33 PM CDT (10/23) 2:12 AM CDT (10/23)
Length of Visible Light 11h 58m
Length of Day
11h 08m
Waxing Gibbous, 67% of the Moon is Illuminated
Oct 23
Waxing Gibbous
Oct 29
Full
Nov 6
Last Quarter
Nov 13
New
Nov 20
First Quarter

Hourly Weather History & Observations

Time (CDT) Temp. Heat Index Dew Point Humidity Pressure Visibility Wind Dir Wind Speed Gust Speed Precip Events Conditions
12:15 AM 72.5 °F - 63.9 °F 74% 29.95 in 10.0 mi South 10.4 mph - N/A   Clear
12:35 AM 72.0 °F - 63.5 °F 75% 29.94 in 10.0 mi South 8.1 mph - N/A   Clear
1:15 AM 70.9 °F - 63.5 °F 77% 29.93 in 10.0 mi South 5.8 mph - N/A   Clear
1:35 AM 70.3 °F - 63.5 °F 79% 29.93 in 10.0 mi South 6.9 mph - N/A   Clear
1:55 AM 70.0 °F - 63.1 °F 79% 29.93 in 10.0 mi South 5.8 mph - N/A   Clear
2:15 AM 69.8 °F - 63.0 °F 79% 29.92 in 10.0 mi South 6.9 mph - N/A   Clear
2:35 AM 69.8 °F - 62.8 °F 78% 29.91 in 10.0 mi South 8.1 mph - N/A   Clear
3:15 AM 70.2 °F - 62.2 °F 76% 29.91 in 10.0 mi SSW 8.1 mph - N/A   Clear
3:35 AM 70.0 °F - 61.7 °F 75% 29.91 in 10.0 mi SSW 8.1 mph - N/A   Clear
3:55 AM 69.8 °F - 61.2 °F 74% 29.90 in 10.0 mi South 6.9 mph - N/A   Clear
4:15 AM 69.1 °F - 60.8 °F 75% 29.90 in 10.0 mi South 8.1 mph - N/A   Clear
4:35 AM 68.7 °F - 60.4 °F 75% 29.91 in 10.0 mi SSW 8.1 mph - N/A   Clear
4:55 AM 68.0 °F - 59.9 °F 75% 29.91 in 10.0 mi South 4.6 mph - N/A   Clear
5:15 AM 66.6 °F - 59.9 °F 79% 29.91 in 10.0 mi South 3.5 mph - N/A   Clear
5:35 AM 65.8 °F - 59.7 °F 81% 29.92 in 10.0 mi South 3.5 mph - N/A   Clear
5:55 AM 65.7 °F - 59.4 °F 80% 29.93 in 10.0 mi South 4.6 mph - N/A   Clear
6:35 AM 65.5 °F - 59.0 °F 80% 29.94 in 10.0 mi South 5.8 mph - N/A   Clear
6:55 AM 65.5 °F - 59.0 °F 80% 29.95 in 10.0 mi South 4.6 mph - N/A   Clear
7:15 AM 65.1 °F - 59.0 °F 81% 29.95 in 10.0 mi South 5.8 mph - N/A   Clear
7:35 AM 64.8 °F - 59.4 °F 83% 29.95 in 10.0 mi SSE 5.8 mph - N/A   Clear
7:55 AM 64.6 °F - 59.9 °F 85% 29.95 in 10.0 mi South 5.8 mph - N/A   Clear
8:15 AM 64.2 °F - 60.1 °F 86% 29.96 in 10.0 mi South 4.6 mph - N/A   Clear
8:35 AM 64.8 °F - 61.0 °F 88% 29.97 in 10.0 mi South 5.8 mph - N/A   Clear
8:55 AM 66.0 °F - 62.1 °F 87% 29.97 in 10.0 mi South 8.1 mph - N/A   Clear
9:15 AM 67.3 °F - 62.8 °F 85% 29.98 in 10.0 mi South 11.5 mph - N/A   Clear
9:35 AM 68.5 °F - 63.5 °F 84% 29.98 in 10.0 mi South 11.5 mph 16.1 mph N/A   Clear
9:55 AM 69.4 °F - 64.2 °F 83% 29.98 in 10.0 mi South 12.7 mph 18.4 mph N/A   Clear
10:15 AM 70.9 °F - 64.4 °F 80% 29.99 in 10.0 mi SSW 11.5 mph 17.3 mph N/A   Clear
10:55 AM 73.8 °F - 63.9 °F 71% 29.99 in 10.0 mi South 12.7 mph 17.3 mph N/A   Clear
11:15 AM 75.2 °F - 63.1 °F 66% 29.99 in 10.0 mi SSW 9.2 mph - N/A   Clear
11:35 AM 76.8 °F - 62.4 °F 61% 29.99 in 10.0 mi SSW 10.4 mph - N/A   Clear
11:55 AM 77.7 °F - 60.3 °F 55% 29.99 in 10.0 mi SSW 12.7 mph 19.6 mph N/A   Clear
12:15 PM 78.8 °F - 57.0 °F 47% 29.98 in 10.0 mi SSW 10.4 mph - N/A   Clear
12:35 PM 79.9 °F - 57.4 °F 46% 29.98 in 10.0 mi SSW 10.4 mph - N/A   Clear
12:55 PM 80.8 °F 80.9 °F 57.0 °F 44% 29.97 in 10.0 mi SW 9.2 mph 17.3 mph N/A   Clear
1:15 PM 81.9 °F 81.3 °F 55.6 °F 40% 29.96 in 10.0 mi SW 9.2 mph - N/A   Clear
1:35 PM 82.6 °F 81.7 °F 54.9 °F 38% 29.96 in 10.0 mi South 11.5 mph - N/A   Clear
1:55 PM 83.5 °F 82.5 °F 55.6 °F 38% 29.95 in 10.0 mi SW 8.1 mph - N/A   Clear
2:15 PM 84.4 °F - 52.7 °F 33% 29.93 in 10.0 mi SSW 5.8 mph - N/A   Clear
2:35 PM 85.1 °F - 51.3 °F 31% 29.92 in 10.0 mi SW 8.1 mph - N/A   Clear
2:55 PM 85.8 °F - 50.0 °F 29% 29.92 in 10.0 mi SSW 10.4 mph - N/A   Clear
3:15 PM 86.2 °F - 48.2 °F 27% 29.91 in 10.0 mi SSW 9.2 mph - N/A   Clear
3:35 PM 86.7 °F - 47.3 °F 25% 29.90 in 10.0 mi WSW 9.2 mph - N/A   Clear
3:55 PM 87.1 °F - 46.2 °F 24% 29.90 in 10.0 mi SSW 3.5 mph 9.2 mph N/A   Clear
4:15 PM 87.3 °F - 47.1 °F 25% 29.90 in 10.0 mi SSW 8.1 mph - N/A   Clear
4:35 PM 87.8 °F - 47.3 °F 25% 29.89 in 10.0 mi South 9.2 mph - N/A   Clear
4:55 PM 87.4 °F - 48.4 °F 26% 29.89 in 10.0 mi South 9.2 mph - N/A   Clear
5:15 PM 87.4 °F - 47.1 °F 25% 29.89 in 10.0 mi South 9.2 mph - N/A   Clear
5:35 PM 87.3 °F - 46.9 °F 25% 29.89 in 10.0 mi SSE 9.2 mph - N/A   Clear
5:55 PM 87.1 °F - 46.6 °F 24% 29.89 in 10.0 mi SSW 8.1 mph - N/A   Clear
6:15 PM 86.7 °F - 45.3 °F 24% 29.89 in 10.0 mi South 6.9 mph - N/A   Clear
6:35 PM 85.8 °F - 46.8 °F 26% 29.89 in 10.0 mi South 5.8 mph - N/A   Clear
6:55 PM 84.6 °F - 46.4 °F 26% 29.89 in 10.0 mi South 3.5 mph - N/A   Clear
7:15 PM 83.1 °F - 46.2 °F 27% 29.90 in 10.0 mi South 4.6 mph - N/A   Clear
7:35 PM 81.9 °F - 46.4 °F 29% 29.90 in 10.0 mi South 4.6 mph - N/A   Clear
7:55 PM 79.3 °F - 48.0 °F 33% 29.91 in 10.0 mi SSE 5.8 mph - N/A   Clear
8:15 PM 76.6 °F - 50.7 °F 40% 29.91 in 10.0 mi SSE 6.9 mph - N/A   Clear
8:35 PM 76.8 °F - 49.3 °F 38% 29.92 in 10.0 mi South 8.1 mph - N/A   Clear
8:55 PM 76.8 °F - 51.8 °F 42% 29.93 in 10.0 mi South 9.2 mph - N/A   Clear
9:15 PM 76.8 °F - 55.0 °F 47% 29.93 in 10.0 mi South 8.1 mph - N/A   Clear
9:35 PM 75.7 °F - 56.8 °F 52% 29.93 in 10.0 mi South 11.5 mph - N/A   Clear
9:55 PM 74.7 °F - 58.5 °F 57% 29.94 in 10.0 mi South 9.2 mph - N/A   Clear
10:15 PM 73.9 °F - 59.9 °F 61% 29.95 in 10.0 mi South 9.2 mph - N/A   Clear
10:35 PM 73.6 °F - 60.6 °F 64% 29.95 in 10.0 mi South 11.5 mph - N/A   Clear
10:55 PM 72.9 °F - 61.3 °F 67% 29.95 in 10.0 mi South 10.4 mph - N/A   Clear
11:15 PM 72.3 °F - 62.1 °F 70% 29.95 in 10.0 mi South 9.2 mph - N/A   Clear
11:35 PM 71.6 °F - 62.6 °F 73% 29.95 in 10.0 mi South 9.2 mph - N/A   Clear
11:55 PM 71.2 °F - 63.0 °F 75% 29.95 in 10.0 mi South 10.4 mph - N/A   Clear